Time;durP1;ratioP1;P1;durP2;ratioP2;P2;SDS_P1;SDS_P2;PMS_P1;PMS_P2;Temp;Humidity;BMP_temperature;BMP_pressure;BME280_temperature;BME280_humidity;BME280_pressure;Samples;Min_cycle;Max_cycle;Signal;HPM_P1;HPM_P2
2022/08/02 00:02:17;;;;;;;;;;;;;;;16.95;100.00;95862.53;10412720;28;2098;-70
2022/08/02 00:07:20;;;;;;;;;;;;;;;16.93;100.00;95859.34;10408391;28;1809;-70
2022/08/02 00:12:23;;;;;;;;;;;;;;;16.91;100.00;95861.53;10418581;28;1861;-70
2022/08/02 00:17:28;;;;;;;;;;;;;;;16.94;100.00;95869.06;10432035;28;1859;-69
2022/08/02 00:22:32;;;;;;;;;;;;;;;16.99;100.00;95880.63;10412571;28;2001;-69
2022/08/02 00:27:35;;;;;;;;;;;;;;;16.97;100.00;95882.00;10418338;28;1964;-69
2022/08/02 00:32:40;;;;;;;;;;;;;;;16.96;100.00;95885.84;10417332;28;1869;-68
2022/08/02 00:37:43;;;;;;;;;;;;;;;16.99;100.00;95879.81;10420614;28;1944;-69
2022/08/02 00:42:47;;;;;;;;;;;;;;;17.11;100.00;95880.00;10414800;28;1902;-70
2022/08/02 00:47:51;;;;;;;;;;;;;;;17.05;100.00;95873.13;10418617;28;1901;-70
2022/08/02 00:52:54;;;;;;;;;;;;;;;17.07;100.00;95867.38;10415658;28;1844;-72
2022/08/02 00:57:58;;;;;;;;;;;;;;;17.06;100.00;95869.31;10415438;28;2195;-70
2022/08/02 01:03:03;;;;;;;;;;;;;;;17.08;100.00;95877.13;10419158;28;2001;-69
2022/08/02 01:08:08;;;;;;;;;;;;;;;17.05;100.00;95878.56;10414980;28;2337;-68
2022/08/02 01:13:12;;;;;;;;;;;;;;;17.02;100.00;95879.16;10412122;28;2071;-70
2022/08/02 01:18:17;;;;;;;;;;;;;;;16.98;100.00;95878.97;10411291;28;1990;-70
2022/08/02 01:23:22;;;;;;;;;;;;;;;16.90;100.00;95884.38;10411768;28;2015;-70
2022/08/02 01:28:31;;;;;;;;;;;;;;;16.88;100.00;95878.47;10428534;28;2068;-70
2022/08/02 01:33:54;;;;;;;;;;;;;;;16.80;100.00;95882.75;10411943;28;1970;-70
2022/08/02 01:39:02;;;;;;;;;;;;;;;16.74;100.00;95882.06;10413566;28;1975;-70
2022/08/02 01:44:25;;;;;;;;;;;;;;;16.76;100.00;95868.19;10409219;28;1968;-70
2022/08/02 01:49:37;;;;;;;;;;;;;;;16.72;100.00;95870.69;10413200;28;1937;-70
2022/08/02 01:54:42;;;;;;;;;;;;;;;16.65;100.00;95864.06;10417007;28;2008;-69
2022/08/02 01:59:46;;;;;;;;;;;;;;;16.53;100.00;95864.63;10428816;28;1977;-69
2022/08/02 02:04:49;;;;;;;;;;;;;;;16.59;100.00;95855.25;10413436;28;1995;-70
2022/08/02 02:09:53;;;;;;;;;;;;;;;16.59;100.00;95854.47;10414046;28;1992;-70
2022/08/02 02:14:57;;;;;;;;;;;;;;;16.64;100.00;95860.56;10415887;28;1925;-70
2022/08/02 02:20:01;;;;;;;;;;;;;;;16.80;100.00;95852.88;10413352;28;1917;-70
2022/08/02 02:25:04;;;;;;;;;;;;;;;16.82;100.00;95852.56;10410932;28;1984;-70
2022/08/02 02:30:09;;;;;;;;;;;;;;;16.87;100.00;95847.00;10411701;28;2029;-70
2022/08/02 02:35:13;;;;;;;;;;;;;;;16.87;100.00;95852.44;10414232;28;1994;-70
2022/08/02 02:40:17;;;;;;;;;;;;;;;16.92;100.00;95860.41;10410213;28;2029;-70
2022/08/02 02:45:21;;;;;;;;;;;;;;;16.95;100.00;95855.19;10418050;28;2161;-69
2022/08/02 02:50:25;;;;;;;;;;;;;;;16.96;100.00;95864.13;10414788;28;2122;-69
2022/08/02 02:55:29;;;;;;;;;;;;;;;16.90;100.00;95862.66;10405334;28;2006;-71
2022/08/02 03:05:55;;;;;;;;;;;;;;;16.70;100.00;95867.50;10407822;28;1946;-69
2022/08/02 03:10:59;;;;;;;;;;;;;;;16.70;100.00;95882.97;10409593;28;1930;-70
2022/08/02 03:16:07;;;;;;;;;;;;;;;16.66;100.00;95869.19;10412193;28;2079;-69
2022/08/02 03:21:11;;;;;;;;;;;;;;;16.56;100.00;95868.66;10417578;28;1985;-69
2022/08/02 03:26:16;;;;;;;;;;;;;;;16.50;100.00;95878.84;10430977;28;1969;-70
2022/08/02 03:31:23;;;;;;;;;;;;;;;16.48;100.00;95881.06;10410559;28;1982;-70
2022/08/02 03:36:27;;;;;;;;;;;;;;;16.43;100.00;95883.88;10417439;28;1929;-69
2022/08/02 03:41:31;;;;;;;;;;;;;;;16.46;100.00;95877.84;10413254;28;2108;-71
2022/08/02 03:46:38;;;;;;;;;;;;;;;16.42;100.00;95874.16;10422055;28;2126;-72
2022/08/02 03:51:42;;;;;;;;;;;;;;;16.50;100.00;95876.13;10415608;28;2016;-70
2022/08/02 03:56:46;;;;;;;;;;;;;;;16.45;100.00;95878.94;10415707;28;1950;-70
2022/08/02 04:01:49;;;;;;;;;;;;;;;16.62;100.00;95876.38;10416105;28;2049;-71
2022/08/02 04:06:56;;;;;;;;;;;;;;;16.62;100.00;95887.22;10418871;28;2290;-70
2022/08/02 04:12:00;;;;;;;;;;;;;;;16.72;100.00;95891.59;10417618;28;2260;-69
2022/08/02 04:17:07;;;;;;;;;;;;;;;16.87;100.00;95888.53;10414350;28;2197;-72
2022/08/02 04:22:11;;;;;;;;;;;;;;;16.99;100.00;95896.09;10417145;28;1980;-68
2022/08/02 04:27:16;;;;;;;;;;;;;;;17.22;100.00;95897.63;10417776;28;1882;-69
2022/08/02 04:32:40;;;;;;;;;;;;;;;17.28;100.00;95907.25;10409461;28;1964;-72
2022/08/02 04:37:44;;;;;;;;;;;;;;;17.31;100.00;95905.06;10415329;28;2099;-69
2022/08/02 04:43:08;;;;;;;;;;;;;;;17.34;100.00;95920.72;10419306;28;1945;-70
2022/08/02 04:48:12;;;;;;;;;;;;;;;17.32;100.00;95928.38;10415208;28;1973;-71
2022/08/02 04:53:16;;;;;;;;;;;;;;;17.31;100.00;95937.66;10415339;28;1895;-70
2022/08/02 04:58:19;;;;;;;;;;;;;;;17.42;100.00;95934.31;10414681;28;1985;-70
2022/08/02 05:03:42;;;;;;;;;;;;;;;17.55;100.00;95936.13;10417525;28;1957;-70
2022/08/02 05:08:50;;;;;;;;;;;;;;;17.64;100.00;95921.81;10415707;28;2032;-69
2022/08/02 05:13:56;;;;;;;;;;;;;;;17.54;100.00;95922.88;10414223;28;1990;-69
2022/08/02 05:19:01;;;;;;;;;;;;;;;17.39;100.00;95920.59;10415036;28;1938;-72
2022/08/02 05:24:05;;;;;;;;;;;;;;;17.34;100.00;95921.50;10414146;28;1988;-69
2022/08/02 05:29:09;;;;;;;;;;;;;;;17.47;100.00;95925.25;10416149;28;1944;-71
2022/08/02 05:34:12;;;;;;;;;;;;;;;18.21;100.00;95925.31;10414364;28;2050;-72
2022/08/02 05:39:16;;;;;;;;;;;;;;;18.88;100.00;95927.56;10408415;28;2025;-71
2022/08/02 05:44:21;;;;;;;;;;;;;;;18.89;100.00;95939.25;10410523;28;1971;-71
2022/08/02 05:49:25;;;;;;;;;;;;;;;19.04;100.00;95940.69;10413857;28;1964;-70
2022/08/02 05:54:29;;;;;;;;;;;;;;;19.65;100.00;95938.59;10411356;28;2021;-70
2022/08/02 05:59:32;;;;;;;;;;;;;;;20.11;96.24;95935.00;10413658;28;1920;-70
2022/08/02 06:04:36;;;;;;;;;;;;;;;20.62;95.70;95943.22;10408640;28;1984;-70
2022/08/02 06:09:41;;;;;;;;;;;;;;;21.47;88.38;95942.72;10406690;28;1984;-70
2022/08/02 06:14:47;;;;;;;;;;;;;;;21.59;89.65;95943.53;10410695;28;1870;-71
2022/08/02 06:19:56;;;;;;;;;;;;;;;20.89;91.11;95950.84;10406857;28;1976;-73
2022/08/02 06:24:59;;;;;;;;;;;;;;;20.26;95.08;95952.72;10411392;28;2043;-70
2022/08/02 06:30:03;;;;;;;;;;;;;;;19.70;100.00;95952.84;10413084;28;1999;-70
2022/08/02 06:35:07;;;;;;;;;;;;;;;19.59;97.41;95951.63;10408146;28;1962;-70
2022/08/02 06:40:10;;;;;;;;;;;;;;;21.06;92.36;95941.69;10406695;28;1950;-71
2022/08/02 06:45:14;;;;;;;;;;;;;;;21.75;87.36;95942.88;10409437;28;1980;-71
2022/08/02 06:50:18;;;;;;;;;;;;;;;21.94;87.51;95947.78;10430135;28;1975;-70
2022/08/02 06:55:22;;;;;;;;;;;;;;;21.90;85.25;95944.94;10413190;28;1968;-71
2022/08/02 07:00:25;;;;;;;;;;;;;;;22.41;83.33;95945.38;10412967;28;1909;-70
2022/08/02 07:05:30;;;;;;;;;;;;;;;22.26;84.74;95948.81;10410203;28;1997;-73
2022/08/02 07:10:34;;;;;;;;;;;;;;;22.51;81.56;95942.16;10415938;28;1897;-71
2022/08/02 07:15:37;;;;;;;;;;;;;;;23.00;77.49;95944.78;10408412;28;2020;-70
2022/08/02 07:20:51;;;;;;;;;;;;;;;22.85;79.21;95942.75;10418485;28;1895;-70
2022/08/02 07:25:55;;;;;;;;;;;;;;;23.25;73.86;95941.91;10404815;28;1949;-71
2022/08/02 07:31:06;;;;;;;;;;;;;;;22.85;74.22;95937.28;10413804;28;1955;-69
2022/08/02 07:36:10;;;;;;;;;;;;;;;22.80;74.59;95934.78;10409931;28;2012;-70
2022/08/02 07:41:24;;;;;;;;;;;;;;;22.99;72.69;95923.19;10408880;28;1926;-72
2022/08/02 07:46:32;;;;;;;;;;;;;;;23.35;73.41;95933.16;10411898;28;1984;-70
2022/08/02 07:51:36;;;;;;;;;;;;;;;23.85;69.36;95928.97;10411142;28;1898;-70
2022/08/02 07:56:39;;;;;;;;;;;;;;;23.87;70.30;95916.50;10415693;28;2028;-70
2022/08/02 08:01:43;;;;;;;;;;;;;;;23.49;64.84;95917.09;10403788;28;1969;-70
2022/08/02 08:06:50;;;;;;;;;;;;;;;23.46;66.95;95917.78;10411524;28;1978;-71
2022/08/02 08:11:55;;;;;;;;;;;;;;;23.87;66.47;95913.75;10408560;28;1938;-71
2022/08/02 08:16:58;;;;;;;;;;;;;;;24.11;64.51;95915.50;10410376;28;2027;-71
2022/08/02 08:22:03;;;;;;;;;;;;;;;24.16;61.83;95917.94;10413102;28;2011;-72
2022/08/02 08:27:09;;;;;;;;;;;;;;;24.32;62.24;95909.69;10407531;28;1989;-70
2022/08/02 08:32:13;;;;;;;;;;;;;;;24.77;59.14;95914.63;10418504;28;2168;-70
2022/08/02 08:37:20;;;;;;;;;;;;;;;24.34;58.57;95912.09;10416558;28;1858;-72
2022/08/02 08:42:24;;;;;;;;;;;;;;;24.73;57.53;95910.97;10435126;28;1981;-71
2022/08/02 08:47:27;;;;;;;;;;;;;;;24.91;56.71;95913.31;10416322;28;1876;-72
2022/08/02 08:52:36;;;;;;;;;;;;;;;24.80;56.84;95907.59;10416802;28;1909;-72
2022/08/02 08:57:40;;;;;;;;;;;;;;;24.74;59.11;95898.03;10434519;28;1899;-69
2022/08/02 09:02:43;;;;;;;;;;;;;;;25.42;57.16;95896.63;10415674;28;2019;-73
2022/08/02 09:07:46;;;;;;;;;;;;;;;25.71;54.46;95906.97;10421578;28;1846;-70
2022/08/02 09:12:50;;;;;;;;;;;;;;;25.32;53.25;95898.00;10414715;28;1802;-71
2022/08/02 09:17:56;;;;;;;;;;;;;;;25.28;53.28;95900.69;10413808;28;1879;-71
2022/08/02 09:22:59;;;;;;;;;;;;;;;25.79;52.38;95907.91;10416375;28;1977;-70
2022/08/02 09:28:02;;;;;;;;;;;;;;;25.79;53.70;95907.91;10423502;28;1913;-70
2022/08/02 09:33:06;;;;;;;;;;;;;;;26.40;52.35;95915.97;10420156;28;1834;-69
2022/08/02 09:38:09;;;;;;;;;;;;;;;25.83;52.94;95917.00;10406775;28;2168;-70
2022/08/02 09:43:15;;;;;;;;;;;;;;;24.25;56.58;95923.28;10417318;28;1918;-69
2022/08/02 09:48:19;;;;;;;;;;;;;;;24.95;56.08;95919.69;10411763;28;1804;-71
2022/08/02 09:53:23;;;;;;;;;;;;;;;25.25;54.94;95917.13;10410979;28;1891;-70
2022/08/02 09:58:26;;;;;;;;;;;;;;;25.79;55.26;95913.41;10418103;28;1740;-71
2022/08/02 10:03:29;;;;;;;;;;;;;;;26.30;51.68;95919.31;10412270;28;1983;-71
2022/08/02 10:08:39;;;;;;;;;;;;;;;25.31;53.04;95905.47;10431109;28;1863;-73
2022/08/02 10:13:43;;;;;;;;;;;;;;;25.83;51.01;95901.28;10415072;28;1811;-71
2022/08/02 10:18:47;;;;;;;;;;;;;;;26.31;50.85;95906.34;10424121;28;1820;-71
2022/08/02 10:23:51;;;;;;;;;;;;;;;26.21;50.65;95906.97;10418890;28;1980;-71
2022/08/02 10:28:54;;;;;;;;;;;;;;;26.56;48.86;95912.22;10415589;28;1836;-71
2022/08/02 10:33:57;;;;;;;;;;;;;;;26.98;47.05;95906.47;10410142;28;1868;-71
2022/08/02 10:39:01;;;;;;;;;;;;;;;27.28;47.04;95902.84;10409043;28;1786;-71
2022/08/02 10:44:05;;;;;;;;;;;;;;;27.22;45.92;95894.13;10412580;28;2001;-71
2022/08/02 10:49:26;;;;;;;;;;;;;;;26.86;48.56;95888.19;10428240;28;1906;-71
2022/08/02 10:54:45;;;;;;;;;;;;;;;26.77;47.51;95889.63;10418940;28;1881;-71
2022/08/02 10:59:49;;;;;;;;;;;;;;;26.84;47.56;95890.50;10416374;28;1824;-71
2022/08/02 11:04:53;;;;;;;;;;;;;;;27.28;47.34;95884.31;10414312;28;1918;-69
2022/08/02 11:09:58;;;;;;;;;;;;;;;27.59;45.66;95874.75;10411435;28;1882;-69
2022/08/02 11:15:03;;;;;;;;;;;;;;;29.53;41.42;95858.84;10407803;28;1904;-71
2022/08/02 11:20:10;;;;;;;;;;;;;;;28.42;41.85;95854.88;10412390;28;1874;-71
2022/08/02 11:25:13;;;;;;;;;;;;;;;27.34;44.87;95844.16;10409011;28;1973;-73
2022/08/02 11:30:16;;;;;;;;;;;;;;;28.48;41.94;95836.75;10413072;28;2040;-69
2022/08/02 11:35:20;;;;;;;;;;;;;;;29.28;39.77;95833.88;10425142;28;1833;-71
2022/08/02 11:40:24;;;;;;;;;;;;;;;28.11;40.69;95849.94;10411645;28;1929;-71
2022/08/02 11:45:37;;;;;;;;;;;;;;;27.77;41.14;95830.75;10407103;28;1988;-70
2022/08/02 11:50:41;;;;;;;;;;;;;;;27.12;42.79;95836.88;10404615;28;1828;-72
2022/08/02 11:55:44;;;;;;;;;;;;;;;27.38;43.51;95839.50;10411336;28;1829;-70
2022/08/02 12:00:48;;;;;;;;;;;;;;;27.56;44.39;95830.56;10407410;28;1828;-70
2022/08/02 12:05:52;;;;;;;;;;;;;;;27.07;45.15;95842.72;10423338;28;1926;-70
2022/08/02 12:11:08;;;;;;;;;;;;;;;27.37;44.54;95843.44;10432976;28;1852;-71
2022/08/02 12:21:32;;;;;;;;;;;;;;;26.52;43.71;95845.22;10414472;28;1786;-70
2022/08/02 12:26:36;;;;;;;;;;;;;;;26.85;43.76;95842.47;10417657;28;1918;-71
2022/08/02 12:31:40;;;;;;;;;;;;;;;27.51;42.97;95830.91;10416922;28;1849;-71
2022/08/02 12:37:00;;;;;;;;;;;;;;;27.65;42.01;95828.28;10416335;28;1798;-71
2022/08/02 12:42:05;;;;;;;;;;;;;;;28.44;38.06;95818.53;10412297;28;1816;-71
2022/08/02 12:47:09;;;;;;;;;;;;;;;28.35;39.88;95815.34;10417720;28;1906;-69
2022/08/02 12:52:13;;;;;;;;;;;;;;;28.53;40.14;95814.25;10416421;28;1836;-71
2022/08/02 12:57:17;;;;;;;;;;;;;;;28.64;37.98;95803.25;10419149;28;1978;-70
2022/08/02 13:02:21;;;;;;;;;;;;;;;28.79;37.35;95806.84;10409459;28;1861;-70
2022/08/02 13:07:26;;;;;;;;;;;;;;;28.18;36.67;95795.47;10415623;28;1998;-71
2022/08/02 13:12:30;;;;;;;;;;;;;;;28.21;36.40;95793.94;10414823;28;1857;-70
2022/08/02 13:17:33;;;;;;;;;;;;;;;28.15;36.18;95801.81;10415492;28;1868;-70
2022/08/02 13:22:37;;;;;;;;;;;;;;;28.11;36.10;95795.44;10413606;28;1930;-71
2022/08/02 13:27:55;;;;;;;;;;;;;;;28.55;35.14;95780.69;10419183;28;1885;-71
2022/08/02 13:32:58;;;;;;;;;;;;;;;28.64;35.86;95777.56;10410157;28;1887;-71
2022/08/02 13:38:05;;;;;;;;;;;;;;;28.95;37.33;95771.34;10410760;28;1843;-71
2022/08/02 13:43:09;;;;;;;;;;;;;;;28.35;36.84;95771.13;10414297;28;1906;-70
2022/08/02 13:48:12;;;;;;;;;;;;;;;28.91;36.41;95764.97;10413921;28;1852;-70
2022/08/02 13:53:21;;;;;;;;;;;;;;;29.22;35.98;95757.94;10414213;28;1918;-72
2022/08/02 13:58:24;;;;;;;;;;;;;;;28.92;36.03;95752.75;10411639;28;2084;-71
2022/08/02 14:03:29;;;;;;;;;;;;;;;29.04;34.70;95752.38;10415661;28;2346;-74
2022/08/02 14:08:52;;;;;;;;;;;;;;;28.65;34.58;95745.94;10411170;28;1805;-71
2022/08/02 14:13:55;;;;;;;;;;;;;;;28.46;36.62;95744.31;10413723;28;1765;-72
2022/08/02 14:18:59;;;;;;;;;;;;;;;29.11;34.91;95746.06;10413950;28;1790;-71
2022/08/02 14:24:02;;;;;;;;;;;;;;;28.99;34.75;95736.16;10427548;28;1946;-71
2022/08/02 14:29:06;;;;;;;;;;;;;;;29.35;32.62;95727.88;10412442;28;1826;-71
2022/08/02 14:34:09;;;;;;;;;;;;;;;29.40;32.35;95735.78;10405921;28;1515;-71
2022/08/02 14:39:12;;;;;;;;;;;;;;;29.02;32.73;95732.63;10415564;28;1901;-71
2022/08/02 14:44:16;;;;;;;;;;;;;;;29.34;32.81;95718.00;10411696;28;1906;-71
2022/08/02 14:49:20;;;;;;;;;;;;;;;29.94;32.56;95733.72;10412655;28;1895;-71
2022/08/02 14:54:30;;;;;;;;;;;;;;;29.82;32.48;95731.38;10412439;28;1780;-71
2022/08/02 14:59:33;;;;;;;;;;;;;;;30.13;31.31;95722.22;10415932;28;1826;-70
2022/08/02 15:04:44;;;;;;;;;;;;;;;29.85;31.32;95738.91;10408087;28;1971;-71
2022/08/02 15:09:48;;;;;;;;;;;;;;;29.73;31.46;95736.56;10401733;28;1836;-69
2022/08/02 15:14:52;;;;;;;;;;;;;;;29.66;31.65;95729.06;10419781;28;1843;-71
2022/08/02 15:19:55;;;;;;;;;;;;;;;29.92;30.23;95729.78;10416220;28;1822;-70
2022/08/02 15:25:13;;;;;;;;;;;;;;;29.91;31.63;95734.53;10407819;28;1902;-70
2022/08/02 15:30:18;;;;;;;;;;;;;;;29.82;30.69;95734.16;10412187;28;1846;-70
2022/08/02 15:35:21;;;;;;;;;;;;;;;29.65;30.84;95724.72;10405563;28;1789;-73
2022/08/02 15:40:24;;;;;;;;;;;;;;;29.67;31.04;95735.38;10410734;28;1996;-72
2022/08/02 15:45:28;;;;;;;;;;;;;;;29.55;31.18;95720.75;10408534;28;1987;-71
2022/08/02 15:50:32;;;;;;;;;;;;;;;29.15;32.02;95719.19;10412126;28;1957;-71
2022/08/02 15:55:37;;;;;;;;;;;;;;;28.93;31.64;95718.34;10410927;28;1891;-71
2022/08/02 16:00:55;;;;;;;;;;;;;;;28.47;31.48;95724.56;10414040;28;1978;-71
2022/08/02 16:05:59;;;;;;;;;;;;;;;28.67;31.40;95721.44;10410799;28;1910;-71
2022/08/02 16:11:03;;;;;;;;;;;;;;;28.48;31.23;95723.38;10405742;28;1858;-72
2022/08/02 16:16:06;;;;;;;;;;;;;;;28.48;31.47;95712.31;10409999;28;1825;-71
2022/08/02 16:21:10;;;;;;;;;;;;;;;28.76;31.48;95719.13;10408034;28;1691;-72
2022/08/02 16:26:13;;;;;;;;;;;;;;;28.51;31.87;95714.31;10408122;28;1906;-71
2022/08/02 16:31:17;;;;;;;;;;;;;;;28.27;32.93;95710.25;10406687;28;1860;-71
2022/08/02 16:36:21;;;;;;;;;;;;;;;28.32;32.00;95700.84;10409829;28;2213;-70
2022/08/02 16:41:24;;;;;;;;;;;;;;;28.00;31.79;95701.47;10411822;28;1804;-73
2022/08/02 16:46:48;;;;;;;;;;;;;;;27.91;31.27;95698.25;10409313;28;1973;-71
2022/08/02 16:51:53;;;;;;;;;;;;;;;27.68;29.77;95692.22;10413235;28;1828;-71
2022/08/02 16:56:57;;;;;;;;;;;;;;;27.45;30.27;95690.47;10411985;28;1721;-71
2022/08/02 17:02:02;;;;;;;;;;;;;;;27.24;30.94;95695.88;10418277;28;1840;-70
2022/08/02 17:07:21;;;;;;;;;;;;;;;27.13;30.54;95708.78;10416093;28;2043;-71
2022/08/02 17:12:44;;;;;;;;;;;;;;;26.91;32.04;95705.81;10415767;28;1978;-70
2022/08/02 17:17:53;;;;;;;;;;;;;;;26.74;33.08;95702.91;10413594;28;1905;-71
2022/08/02 17:22:56;;;;;;;;;;;;;;;26.54;34.25;95707.81;10417136;28;1977;-71
2022/08/02 17:28:03;;;;;;;;;;;;;;;26.34;34.63;95707.97;10410986;28;1981;-69
2022/08/02 17:33:11;;;;;;;;;;;;;;;26.28;34.60;95708.69;10416381;28;1800;-71
2022/08/02 17:38:16;;;;;;;;;;;;;;;26.29;34.15;95705.56;10414230;28;1869;-71
2022/08/02 17:43:30;;;;;;;;;;;;;;;26.20;34.83;95707.78;10415975;28;1872;-70
2022/08/02 17:53:57;;;;;;;;;;;;;;;26.02;34.82;95702.09;10417505;28;1813;-71
2022/08/02 17:59:02;;;;;;;;;;;;;;;25.98;34.60;95711.47;10420700;28;1813;-70
2022/08/02 18:04:06;;;;;;;;;;;;;;;25.86;34.95;95710.53;10413579;28;1967;-69
2022/08/02 18:09:16;;;;;;;;;;;;;;;25.80;34.88;95720.28;10414943;28;1862;-70
2022/08/02 18:20:04;;;;;;;;;;;;;;;25.44;36.03;95710.69;10371206;28;1912;-70
2022/08/02 18:25:16;;;;;;;;;;;;;;;25.23;36.93;95713.94;10411607;28;2375;-70
2022/08/02 18:31:13;;;;;;;;;;;;;;;24.91;37.23;95705.13;10416690;28;1767;-69
2022/08/02 18:36:28;;;;;;;;;;;;;;;24.68;38.12;95715.31;10418828;28;1828;-71
2022/08/02 18:41:32;;;;;;;;;;;;;;;24.38;38.73;95713.25;10413652;28;1870;-71
2022/08/02 18:52:07;;;;;;;;;;;;;;;24.05;40.55;95719.22;10564112;27;1795;-69
2022/08/02 18:57:10;;;;;;;;;;;;;;;23.84;41.35;95729.75;10593416;27;1806;-70
2022/08/02 19:02:34;;;;;;;;;;;;;;;23.54;42.66;95729.44;10558511;28;1879;-69
2022/08/02 19:07:37;;;;;;;;;;;;;;;23.30;43.77;95734.03;10558483;28;1906;-70
2022/08/02 19:12:56;;;;;;;;;;;;;;;23.05;44.45;95727.94;10557592;28;1914;-71
2022/08/02 19:18:00;;;;;;;;;;;;;;;22.93;45.14;95737.06;10560873;28;1760;-75
2022/08/02 19:23:06;;;;;;;;;;;;;;;22.75;45.57;95732.25;10554523;28;1916;-71
2022/08/02 19:28:09;;;;;;;;;;;;;;;22.60;45.72;95728.34;10557437;28;1981;-73
2022/08/02 19:33:13;;;;;;;;;;;;;;;22.56;46.15;95733.72;10558810;28;1899;-71
2022/08/02 19:38:36;;;;;;;;;;;;;;;22.43;46.68;95740.41;10555734;28;1914;-71
2022/08/02 19:43:46;;;;;;;;;;;;;;;22.29;49.08;95750.97;10556596;28;1999;-71
2022/08/02 19:49:10;;;;;;;;;;;;;;;22.13;51.33;95757.19;10556804;28;1930;-71
2022/08/02 19:54:34;;;;;;;;;;;;;;;22.19;51.63;95763.22;10554240;28;1764;-71
2022/08/02 19:59:58;;;;;;;;;;;;;;;22.08;51.09;95762.13;10545496;28;1839;-71
2022/08/02 20:05:02;;;;;;;;;;;;;;;22.02;52.18;95758.03;10561957;27;1807;-70
2022/08/02 20:10:18;;;;;;;;;;;;;;;21.94;51.65;95762.47;10526778;28;1909;-72
2022/08/02 20:15:27;;;;;;;;;;;;;;;21.95;52.89;95764.09;10543867;28;1827;-72
2022/08/02 20:20:51;;;;;;;;;;;;;;;21.73;55.26;95768.13;10528032;28;1869;-71
2022/08/02 20:25:55;;;;;;;;;;;;;;;21.55;57.54;95762.09;10528864;28;1831;-72
2022/08/02 20:30:59;;;;;;;;;;;;;;;21.44;57.91;95761.00;10524731;28;1909;-71
2022/08/02 20:36:11;;;;;;;;;;;;;;;21.43;55.63;95758.59;10543831;28;1860;-71
2022/08/02 20:41:16;;;;;;;;;;;;;;;21.47;55.87;95757.56;10526365;28;1890;-71
2022/08/02 20:46:24;;;;;;;;;;;;;;;21.41;56.97;95756.19;10524296;28;1858;-70
2022/08/02 20:51:27;;;;;;;;;;;;;;;21.26;60.16;95754.13;10558410;27;1918;-70
2022/08/02 20:56:36;;;;;;;;;;;;;;;21.17;61.55;95750.69;10540998;28;1839;-71
2022/08/02 21:01:40;;;;;;;;;;;;;;;20.93;64.23;95760.50;10523785;28;1860;-72
2022/08/02 21:07:00;;;;;;;;;;;;;;;20.85;65.79;95758.66;10524708;28;1871;-71
2022/08/02 21:12:05;;;;;;;;;;;;;;;20.81;65.48;95759.69;10520353;28;1993;-71
2022/08/02 21:17:14;;;;;;;;;;;;;;;20.77;67.17;95751.38;10557344;27;1868;-72
2022/08/02 21:22:25;;;;;;;;;;;;;;;20.76;66.60;95752.50;10524954;28;1835;-71
2022/08/02 21:27:30;;;;;;;;;;;;;;;20.72;67.09;95744.19;10524666;28;1840;-70
2022/08/02 21:32:54;;;;;;;;;;;;;;;20.63;66.00;95742.69;10523742;28;1818;-71
2022/08/02 21:37:59;;;;;;;;;;;;;;;20.50;69.57;95734.47;10524167;28;1867;-71
2022/08/02 21:43:02;;;;;;;;;;;;;;;20.44;69.16;95740.47;10523132;28;1968;-71
2022/08/02 21:48:11;;;;;;;;;;;;;;;20.38;72.72;95739.06;10522848;28;2007;-71
2022/08/02 21:53:15;;;;;;;;;;;;;;;20.34;72.39;95735.41;10527677;28;2244;-71
2022/08/02 21:58:38;;;;;;;;;;;;;;;20.28;72.31;95725.84;10522725;28;1779;-73
2022/08/02 22:03:42;;;;;;;;;;;;;;;20.14;74.65;95731.59;10523867;28;1776;-70
2022/08/02 22:08:57;;;;;;;;;;;;;;;20.14;75.59;95731.59;10521886;28;1973;-70
2022/08/02 22:14:01;;;;;;;;;;;;;;;20.08;76.30;95738.41;10525471;28;1823;-70
2022/08/02 22:19:05;;;;;;;;;;;;;;;20.08;76.36;95744.66;10520654;28;1836;-70
2022/08/02 22:24:08;;;;;;;;;;;;;;;19.98;77.65;95742.34;10521741;28;1881;-70
2022/08/02 22:29:21;;;;;;;;;;;;;;;19.87;79.58;95747.41;10537256;28;2224;-71
2022/08/02 22:34:24;;;;;;;;;;;;;;;19.90;80.62;95749.44;10520658;28;1830;-71
2022/08/02 22:39:48;;;;;;;;;;;;;;;19.74;81.71;95748.47;10519570;28;1936;-71
2022/08/02 22:45:11;;;;;;;;;;;;;;;19.70;83.09;95753.78;10535938;28;1828;-71
2022/08/02 22:50:14;;;;;;;;;;;;;;;19.69;82.02;95754.13;10520573;28;1971;-71
2022/08/02 22:55:18;;;;;;;;;;;;;;;19.65;83.14;95758.63;10520561;28;1831;-71
2022/08/02 23:00:24;;;;;;;;;;;;;;;19.49;84.13;95755.66;10520559;28;1792;-71
2022/08/02 23:05:27;;;;;;;;;;;;;;;19.42;85.76;95760.84;10537822;28;1836;-70
2022/08/02 23:10:31;;;;;;;;;;;;;;;19.40;85.59;95761.19;10537250;28;1969;-70
2022/08/02 23:20:52;;;;;;;;;;;;;;;19.34;86.76;95758.97;10521043;28;1791;-71
2022/08/02 23:25:55;;;;;;;;;;;;;;;19.35;86.96;95757.84;10519667;28;1811;-71
2022/08/02 23:30:59;;;;;;;;;;;;;;;19.22;87.54;95767.88;10517408;28;1926;-71
2022/08/02 23:36:02;;;;;;;;;;;;;;;19.12;89.27;95763.56;10523350;28;1903;-71
2022/08/02 23:41:06;;;;;;;;;;;;;;;19.07;89.62;95765.69;10530030;28;1764;-70
2022/08/02 23:46:09;;;;;;;;;;;;;;;18.99;89.78;95763.78;10528228;28;1843;-71
2022/08/02 23:51:12;;;;;;;;;;;;;;;18.92;89.94;95760.78;10525418;28;1921;-71
2022/08/02 23:56:25;;;;;;;;;;;;;;;18.79;90.12;95760.66;10528145;28;1888;-70
